Beryl, Arkansas
Current Conditions -  °F | °C
As of 8:58 PM on Saturday 20 Dec 2014 (Local Time) from KLRF Reporting Station
Scattered Clouds Scattered Clouds  
Wind Chill: 39°   Ceiling: Unl
Heat Index: 39°   Visibility: 10mi
Dew Point: 36°   Wind: 2mph
Humidity: 91%   Direction: 50°NE
Pressure: 30.25"   Gusts: NA
Location:  35.0822°N, 92.366°W
Report Text: KLRF 210258Z AUTO 05002KT 10SM SCT049 04/02 A3025 RMK AO2 SLP248 T00370024 51007
Loading
Personal Weather Stations






























Interactive Weather Map New forecast layout! Learn more

10-Day Weather Forecast

Advertisements
Track Severe Weather on mobile